sensor_id;sensor_type;location;lat;lon;timestamp;P1;durP1;ratioP1;P2;durP2;ratioP2
56736;SDS011;42618;51.226;4.910;2023-03-17T00:00:54;2.28;;;1.10;;
56736;SDS011;42618;51.226;4.910;2023-03-17T00:03:25;2.75;;;1.30;;
56736;SDS011;42618;51.226;4.910;2023-03-17T00:05:52;2.45;;;1.10;;
56736;SDS011;42618;51.226;4.910;2023-03-17T00:08:26;2.87;;;1.10;;
56736;SDS011;42618;51.226;4.910;2023-03-17T00:10:53;2.15;;;0.93;;
56736;SDS011;42618;51.226;4.910;2023-03-17T00:13:20;2.03;;;1.20;;
56736;SDS011;42618;51.226;4.910;2023-03-17T00:15:49;3.08;;;1.00;;
56736;SDS011;42618;51.226;4.910;2023-03-17T00:18:17;3.83;;;1.15;;
56736;SDS011;42618;51.226;4.910;2023-03-17T00:20:45;2.03;;;1.27;;
56736;SDS011;42618;51.226;4.910;2023-03-17T00:23:16;3.38;;;1.40;;
56736;SDS011;42618;51.226;4.910;2023-03-17T00:25:43;2.67;;;1.30;;
56736;SDS011;42618;51.226;4.910;2023-03-17T00:28:12;3.20;;;1.60;;
56736;SDS011;42618;51.226;4.910;2023-03-17T00:30:40;7.60;;;1.63;;
56736;SDS011;42618;51.226;4.910;2023-03-17T00:33:08;2.22;;;1.25;;
56736;SDS011;42618;51.226;4.910;2023-03-17T00:35:35;3.47;;;1.25;;
56736;SDS011;42618;51.226;4.910;2023-03-17T00:38:02;2.47;;;1.20;;
56736;SDS011;42618;51.226;4.910;2023-03-17T00:40:29;2.38;;;1.15;;
56736;SDS011;42618;51.226;4.910;2023-03-17T00:42:57;2.33;;;1.10;;
56736;SDS011;42618;51.226;4.910;2023-03-17T00:45:25;3.80;;;1.05;;
56736;SDS011;42618;51.226;4.910;2023-03-17T00:47:56;1.80;;;1.27;;
56736;SDS011;42618;51.226;4.910;2023-03-17T00:50:23;4.43;;;1.40;;
56736;SDS011;42618;51.226;4.910;2023-03-17T00:52:52;1.65;;;1.00;;
56736;SDS011;42618;51.226;4.910;2023-03-17T00:55:19;2.05;;;0.85;;
56736;SDS011;42618;51.226;4.910;2023-03-17T00:57:46;1.60;;;0.90;;
56736;SDS011;42618;51.226;4.910;2023-03-17T01:00:21;2.53;;;1.20;;
56736;SDS011;42618;51.226;4.910;2023-03-17T01:02:50;3.10;;;1.05;;
56736;SDS011;42618;51.226;4.910;2023-03-17T01:05:18;2.72;;;1.10;;
56736;SDS011;42618;51.226;4.910;2023-03-17T01:07:45;1.47;;;0.90;;
56736;SDS011;42618;51.226;4.910;2023-03-17T01:10:15;2.53;;;0.85;;
56736;SDS011;42618;51.226;4.910;2023-03-17T01:12:43;2.42;;;1.02;;
56736;SDS011;42618;51.226;4.910;2023-03-17T01:15:12;0.70;;;0.70;;
56736;SDS011;42618;51.226;4.910;2023-03-17T01:17:39;3.20;;;1.15;;
56736;SDS011;42618;51.226;4.910;2023-03-17T01:20:07;2.13;;;0.73;;
56736;SDS011;42618;51.226;4.910;2023-03-17T01:25:00;1.83;;;0.80;;
56736;SDS011;42618;51.226;4.910;2023-03-17T01:27:28;5.07;;;1.27;;
56736;SDS011;42618;51.226;4.910;2023-03-17T01:29:59;2.30;;;1.02;;
56736;SDS011;42618;51.226;4.910;2023-03-17T01:32:25;2.85;;;1.08;;
56736;SDS011;42618;51.226;4.910;2023-03-17T01:34:52;1.75;;;1.00;;
56736;SDS011;42618;51.226;4.910;2023-03-17T01:37:19;1.88;;;1.00;;
56736;SDS011;42618;51.226;4.910;2023-03-17T01:39:46;3.67;;;1.10;;
56736;SDS011;42618;51.226;4.910;2023-03-17T01:42:13;2.55;;;1.10;;
56736;SDS011;42618;51.226;4.910;2023-03-17T01:44:58;2.28;;;0.90;;
56736;SDS011;42618;51.226;4.910;2023-03-17T01:47:27;2.35;;;0.90;;
56736;SDS011;42618;51.226;4.910;2023-03-17T01:50:04;1.73;;;1.33;;
56736;SDS011;42618;51.226;4.910;2023-03-17T01:52:35;1.85;;;0.80;;
56736;SDS011;42618;51.226;4.910;2023-03-17T01:55:05;2.15;;;1.00;;
56736;SDS011;42618;51.226;4.910;2023-03-17T01:57:40;5.72;;;1.27;;
56736;SDS011;42618;51.226;4.910;2023-03-17T02:00:09;2.42;;;0.93;;
56736;SDS011;42618;51.226;4.910;2023-03-17T02:02:42;3.72;;;0.95;;
56736;SDS011;42618;51.226;4.910;2023-03-17T02:05:10;1.80;;;1.00;;
56736;SDS011;42618;51.226;4.910;2023-03-17T02:07:38;2.38;;;0.98;;
56736;SDS011;42618;51.226;4.910;2023-03-17T02:10:05;1.65;;;0.93;;
56736;SDS011;42618;51.226;4.910;2023-03-17T02:12:36;1.70;;;0.80;;
56736;SDS011;42618;51.226;4.910;2023-03-17T02:15:02;3.55;;;1.20;;
56736;SDS011;42618;51.226;4.910;2023-03-17T02:17:30;1.70;;;0.80;;
56736;SDS011;42618;51.226;4.910;2023-03-17T02:20:10;2.80;;;0.70;;
56736;SDS011;42618;51.226;4.910;2023-03-17T02:22:37;1.27;;;0.85;;
56736;SDS011;42618;51.226;4.910;2023-03-17T02:25:04;3.75;;;0.95;;
56736;SDS011;42618;51.226;4.910;2023-03-17T02:27:36;2.42;;;0.90;;
56736;SDS011;42618;51.226;4.910;2023-03-17T02:30:05;1.88;;;0.77;;
56736;SDS011;42618;51.226;4.910;2023-03-17T02:32:34;2.30;;;0.77;;
56736;SDS011;42618;51.226;4.910;2023-03-17T02:35:01;2.63;;;0.70;;
56736;SDS011;42618;51.226;4.910;2023-03-17T02:37:27;1.37;;;0.83;;
56736;SDS011;42618;51.226;4.910;2023-03-17T02:39:54;3.22;;;0.93;;
56736;SDS011;42618;51.226;4.910;2023-03-17T02:42:21;2.05;;;0.90;;
56736;SDS011;42618;51.226;4.910;2023-03-17T02:44:47;2.05;;;0.90;;
56736;SDS011;42618;51.226;4.910;2023-03-17T02:47:17;2.20;;;0.80;;
56736;SDS011;42618;51.226;4.910;2023-03-17T02:49:44;0.90;;;0.70;;
56736;SDS011;42618;51.226;4.910;2023-03-17T02:52:10;2.13;;;0.90;;
56736;SDS011;42618;51.226;4.910;2023-03-17T02:54:37;1.95;;;0.90;;
56736;SDS011;42618;51.226;4.910;2023-03-17T02:57:03;3.63;;;1.00;;
56736;SDS011;42618;51.226;4.910;2023-03-17T02:59:30;2.47;;;0.90;;
56736;SDS011;42618;51.226;4.910;2023-03-17T03:01:57;3.47;;;0.82;;
56736;SDS011;42618;51.226;4.910;2023-03-17T03:04:24;2.58;;;0.88;;
56736;SDS011;42618;51.226;4.910;2023-03-17T03:06:51;2.60;;;0.90;;
56736;SDS011;42618;51.226;4.910;2023-03-17T03:09:19;4.78;;;0.90;;
56736;SDS011;42618;51.226;4.910;2023-03-17T03:11:46;1.65;;;0.75;;
56736;SDS011;42618;51.226;4.910;2023-03-17T03:14:13;4.63;;;0.65;;
56736;SDS011;42618;51.226;4.910;2023-03-17T03:16:39;1.13;;;0.77;;
56736;SDS011;42618;51.226;4.910;2023-03-17T03:19:06;2.78;;;0.90;;
56736;SDS011;42618;51.226;4.910;2023-03-17T03:21:33;4.80;;;1.02;;
56736;SDS011;42618;51.226;4.910;2023-03-17T03:23:59;2.72;;;0.95;;
56736;SDS011;42618;51.226;4.910;2023-03-17T03:26:26;6.32;;;1.02;;
56736;SDS011;42618;51.226;4.910;2023-03-17T03:28:53;1.80;;;0.77;;
56736;SDS011;42618;51.226;4.910;2023-03-17T03:31:22;1.95;;;0.80;;
56736;SDS011;42618;51.226;4.910;2023-03-17T03:33:49;2.53;;;0.90;;
56736;SDS011;42618;51.226;4.910;2023-03-17T03:36:16;4.47;;;0.80;;
56736;SDS011;42618;51.226;4.910;2023-03-17T03:38:42;1.67;;;0.70;;
56736;SDS011;42618;51.226;4.910;2023-03-17T03:41:09;2.45;;;0.90;;
56736;SDS011;42618;51.226;4.910;2023-03-17T03:43:36;3.60;;;0.87;;
56736;SDS011;42618;51.226;4.910;2023-03-17T03:46:03;2.45;;;0.88;;
56736;SDS011;42618;51.226;4.910;2023-03-17T03:48:29;1.90;;;0.63;;
56736;SDS011;42618;51.226;4.910;2023-03-17T03:50:57;0.88;;;0.70;;
56736;SDS011;42618;51.226;4.910;2023-03-17T03:53:24;2.78;;;0.80;;
56736;SDS011;42618;51.226;4.910;2023-03-17T03:55:51;3.83;;;0.80;;
56736;SDS011;42618;51.226;4.910;2023-03-17T03:58:18;2.57;;;0.80;;
56736;SDS011;42618;51.226;4.910;2023-03-17T04:00:44;2.05;;;0.90;;
56736;SDS011;42618;51.226;4.910;2023-03-17T04:03:12;2.95;;;0.80;;
56736;SDS011;42618;51.226;4.910;2023-03-17T04:05:39;1.83;;;0.82;;
56736;SDS011;42618;51.226;4.910;2023-03-17T04:08:05;4.38;;;0.95;;
56736;SDS011;42618;51.226;4.910;2023-03-17T04:10:32;3.88;;;0.90;;
56736;SDS011;42618;51.226;4.910;2023-03-17T04:12:59;1.98;;;0.90;;
56736;SDS011;42618;51.226;4.910;2023-03-17T04:15:26;2.07;;;0.80;;
56736;SDS011;42618;51.226;4.910;2023-03-17T04:17:52;2.25;;;0.80;;
56736;SDS011;42618;51.226;4.910;2023-03-17T04:20:20;3.33;;;1.05;;
56736;SDS011;42618;51.226;4.910;2023-03-17T04:22:47;2.53;;;0.90;;
56736;SDS011;42618;51.226;4.910;2023-03-17T04:25:14;2.83;;;1.08;;
56736;SDS011;42618;51.226;4.910;2023-03-17T04:27:41;2.63;;;1.30;;
56736;SDS011;42618;51.226;4.910;2023-03-17T04:30:09;2.45;;;1.10;;
56736;SDS011;42618;51.226;4.910;2023-03-17T04:32:36;5.07;;;1.08;;
56736;SDS011;42618;51.226;4.910;2023-03-17T04:35:03;1.90;;;0.90;;
56736;SDS011;42618;51.226;4.910;2023-03-17T04:37:29;2.50;;;1.00;;
56736;SDS011;42618;51.226;4.910;2023-03-17T04:39:59;3.10;;;1.17;;
56736;SDS011;42618;51.226;4.910;2023-03-17T04:42:26;1.80;;;1.17;;
56736;SDS011;42618;51.226;4.910;2023-03-17T04:44:53;2.47;;;1.00;;
56736;SDS011;42618;51.226;4.910;2023-03-17T04:47:19;2.83;;;0.80;;
56736;SDS011;42618;51.226;4.910;2023-03-17T04:49:46;4.70;;;0.80;;
56736;SDS011;42618;51.226;4.910;2023-03-17T04:52:13;1.98;;;1.00;;
56736;SDS011;42618;51.226;4.910;2023-03-17T04:54:40;1.30;;;0.90;;
56736;SDS011;42618;51.226;4.910;2023-03-17T04:57:08;2.03;;;1.13;;
56736;SDS011;42618;51.226;4.910;2023-03-17T04:59:34;3.42;;;1.27;;
56736;SDS011;42618;51.226;4.910;2023-03-17T05:02:01;2.88;;;1.05;;
56736;SDS011;42618;51.226;4.910;2023-03-17T05:04:28;6.63;;;1.45;;
56736;SDS011;42618;51.226;4.910;2023-03-17T05:06:57;4.55;;;2.63;;
56736;SDS011;42618;51.226;4.910;2023-03-17T05:09:24;2.00;;;1.60;;
56736;SDS011;42618;51.226;4.910;2023-03-17T05:11:52;6.10;;;3.17;;
56736;SDS011;42618;51.226;4.910;2023-03-17T05:14:18;5.70;;;2.47;;
56736;SDS011;42618;51.226;4.910;2023-03-17T05:16:46;2.78;;;2.03;;
56736;SDS011;42618;51.226;4.910;2023-03-17T05:19:13;3.75;;;2.47;;
56736;SDS011;42618;51.226;4.910;2023-03-17T05:21:39;3.20;;;2.17;;
56736;SDS011;42618;51.226;4.910;2023-03-17T05:24:06;2.07;;;1.70;;
56736;SDS011;42618;51.226;4.910;2023-03-17T05:26:34;4.55;;;1.92;;
56736;SDS011;42618;51.226;4.910;2023-03-17T05:29:00;2.70;;;1.23;;
56736;SDS011;42618;51.226;4.910;2023-03-17T05:31:27;5.15;;;3.22;;
56736;SDS011;42618;51.226;4.910;2023-03-17T05:33:55;6.53;;;3.45;;
56736;SDS011;42618;51.226;4.910;2023-03-17T05:36:21;3.15;;;2.45;;
56736;SDS011;42618;51.226;4.910;2023-03-17T05:38:48;3.35;;;2.08;;
56736;SDS011;42618;51.226;4.910;2023-03-17T05:41:14;3.22;;;2.20;;
56736;SDS011;42618;51.226;4.910;2023-03-17T05:43:41;3.67;;;2.85;;
56736;SDS011;42618;51.226;4.910;2023-03-17T05:46:08;7.32;;;3.72;;
56736;SDS011;42618;51.226;4.910;2023-03-17T05:48:36;4.70;;;3.75;;
56736;SDS011;42618;51.226;4.910;2023-03-17T05:51:03;10.20;;;6.03;;
56736;SDS011;42618;51.226;4.910;2023-03-17T05:53:30;12.20;;;8.90;;
56736;SDS011;42618;51.226;4.910;2023-03-17T05:55:56;11.00;;;6.65;;
56736;SDS011;42618;51.226;4.910;2023-03-17T05:58:23;18.20;;;10.75;;
56736;SDS011;42618;51.226;4.910;2023-03-17T06:00:49;5.10;;;2.97;;
56736;SDS011;42618;51.226;4.910;2023-03-17T06:03:16;17.83;;;9.27;;
56736;SDS011;42618;51.226;4.910;2023-03-17T06:05:43;9.07;;;4.28;;
56736;SDS011;42618;51.226;4.910;2023-03-17T06:08:10;11.50;;;6.78;;
56736;SDS011;42618;51.226;4.910;2023-03-17T06:10:36;11.23;;;5.60;;
56736;SDS011;42618;51.226;4.910;2023-03-17T06:13:03;18.80;;;10.88;;
56736;SDS011;42618;51.226;4.910;2023-03-17T06:15:29;7.95;;;4.50;;
56736;SDS011;42618;51.226;4.910;2023-03-17T06:17:56;3.70;;;2.33;;
56736;SDS011;42618;51.226;4.910;2023-03-17T06:20:24;11.77;;;4.18;;
56736;SDS011;42618;51.226;4.910;2023-03-17T06:22:51;4.20;;;1.77;;
56736;SDS011;42618;51.226;4.910;2023-03-17T06:25:30;6.40;;;2.47;;
56736;SDS011;42618;51.226;4.910;2023-03-17T06:27:57;8.02;;;3.92;;
56736;SDS011;42618;51.226;4.910;2023-03-17T06:30:28;6.80;;;3.10;;
56736;SDS011;42618;51.226;4.910;2023-03-17T06:32:55;8.35;;;2.65;;
56736;SDS011;42618;51.226;4.910;2023-03-17T06:35:21;7.07;;;3.40;;
56736;SDS011;42618;51.226;4.910;2023-03-17T06:37:48;5.32;;;3.63;;
56736;SDS011;42618;51.226;4.910;2023-03-17T06:40:15;5.03;;;2.30;;
56736;SDS011;42618;51.226;4.910;2023-03-17T06:42:41;5.13;;;1.77;;
56736;SDS011;42618;51.226;4.910;2023-03-17T06:45:08;5.78;;;3.10;;
56736;SDS011;42618;51.226;4.910;2023-03-17T06:47:35;8.60;;;3.78;;
56736;SDS011;42618;51.226;4.910;2023-03-17T06:50:03;5.20;;;2.10;;
56736;SDS011;42618;51.226;4.910;2023-03-17T06:52:29;6.55;;;4.10;;
56736;SDS011;42618;51.226;4.910;2023-03-17T06:54:56;4.53;;;1.60;;
56736;SDS011;42618;51.226;4.910;2023-03-17T06:57:23;3.15;;;2.10;;
56736;SDS011;42618;51.226;4.910;2023-03-17T06:59:49;4.78;;;2.03;;
56736;SDS011;42618;51.226;4.910;2023-03-17T07:02:16;4.88;;;1.65;;
56736;SDS011;42618;51.226;4.910;2023-03-17T07:04:42;2.60;;;1.40;;
56736;SDS011;42618;51.226;4.910;2023-03-17T07:07:09;3.30;;;1.98;;
56736;SDS011;42618;51.226;4.910;2023-03-17T07:09:36;7.60;;;2.50;;
56736;SDS011;42618;51.226;4.910;2023-03-17T07:12:02;4.25;;;1.95;;
56736;SDS011;42618;51.226;4.910;2023-03-17T07:14:34;4.30;;;1.85;;
56736;SDS011;42618;51.226;4.910;2023-03-17T07:17:02;3.33;;;1.60;;
56736;SDS011;42618;51.226;4.910;2023-03-17T07:19:29;4.78;;;1.60;;
56736;SDS011;42618;51.226;4.910;2023-03-17T07:21:56;3.03;;;1.70;;
56736;SDS011;42618;51.226;4.910;2023-03-17T07:24:23;3.05;;;1.63;;
56736;SDS011;42618;51.226;4.910;2023-03-17T07:26:50;2.43;;;1.67;;
56736;SDS011;42618;51.226;4.910;2023-03-17T07:29:16;4.85;;;2.08;;
56736;SDS011;42618;51.226;4.910;2023-03-17T07:31:43;5.35;;;1.95;;
56736;SDS011;42618;51.226;4.910;2023-03-17T07:34:10;2.20;;;1.02;;
56736;SDS011;42618;51.226;4.910;2023-03-17T07:36:38;3.75;;;1.85;;
56736;SDS011;42618;51.226;4.910;2023-03-17T07:39:05;5.32;;;2.17;;
56736;SDS011;42618;51.226;4.910;2023-03-17T07:41:32;8.35;;;4.32;;
56736;SDS011;42618;51.226;4.910;2023-03-17T07:43:58;2.50;;;1.50;;
56736;SDS011;42618;51.226;4.910;2023-03-17T07:46:25;4.47;;;2.43;;
56736;SDS011;42618;51.226;4.910;2023-03-17T07:48:53;2.22;;;1.50;;
56736;SDS011;42618;51.226;4.910;2023-03-17T07:51:20;7.18;;;2.55;;
56736;SDS011;42618;51.226;4.910;2023-03-17T07:53:51;4.20;;;1.15;;
56736;SDS011;42618;51.226;4.910;2023-03-17T07:56:18;5.28;;;1.52;;
56736;SDS011;42618;51.226;4.910;2023-03-17T07:58:45;4.97;;;1.95;;
56736;SDS011;42618;51.226;4.910;2023-03-17T08:01:11;5.20;;;2.30;;
56736;SDS011;42618;51.226;4.910;2023-03-17T08:03:38;3.38;;;2.10;;
56736;SDS011;42618;51.226;4.910;2023-03-17T08:06:07;3.83;;;1.95;;
56736;SDS011;42618;51.226;4.910;2023-03-17T08:08:34;3.80;;;1.50;;
56736;SDS011;42618;51.226;4.910;2023-03-17T08:11:01;3.43;;;1.43;;
56736;SDS011;42618;51.226;4.910;2023-03-17T08:13:32;4.38;;;1.70;;
56736;SDS011;42618;51.226;4.910;2023-03-17T08:15:59;1.95;;;1.40;;
56736;SDS011;42618;51.226;4.910;2023-03-17T08:18:26;3.83;;;1.40;;
56736;SDS011;42618;51.226;4.910;2023-03-17T08:20:52;4.35;;;1.70;;
56736;SDS011;42618;51.226;4.910;2023-03-17T08:23:19;4.32;;;2.08;;
56736;SDS011;42618;51.226;4.910;2023-03-17T08:25:47;2.97;;;1.70;;
56736;SDS011;42618;51.226;4.910;2023-03-17T08:28:14;2.85;;;1.30;;
56736;SDS011;42618;51.226;4.910;2023-03-17T08:30:41;4.35;;;1.50;;
56736;SDS011;42618;51.226;4.910;2023-03-17T08:33:08;6.50;;;1.35;;
56736;SDS011;42618;51.226;4.910;2023-03-17T08:35:35;5.30;;;1.73;;
56736;SDS011;42618;51.226;4.910;2023-03-17T08:38:03;3.97;;;1.48;;
56736;SDS011;42618;51.226;4.910;2023-03-17T08:40:29;2.97;;;1.05;;
56736;SDS011;42618;51.226;4.910;2023-03-17T08:42:59;3.65;;;1.38;;
56736;SDS011;42618;51.226;4.910;2023-03-17T08:45:26;1.77;;;0.93;;
56736;SDS011;42618;51.226;4.910;2023-03-17T08:47:53;10.02;;;1.50;;
56736;SDS011;42618;51.226;4.910;2023-03-17T08:50:21;4.38;;;1.52;;
56736;SDS011;42618;51.226;4.910;2023-03-17T08:55:14;10.85;;;3.55;;
56736;SDS011;42618;51.226;4.910;2023-03-17T08:57:41;20.48;;;7.25;;
56736;SDS011;42618;51.226;4.910;2023-03-17T09:00:10;18.00;;;5.75;;
56736;SDS011;42618;51.226;4.910;2023-03-17T09:02:37;9.65;;;3.40;;
56736;SDS011;42618;51.226;4.910;2023-03-17T09:05:05;14.80;;;4.90;;
56736;SDS011;42618;51.226;4.910;2023-03-17T09:07:32;5.45;;;2.47;;
56736;SDS011;42618;51.226;4.910;2023-03-17T09:09:59;6.53;;;2.95;;
56736;SDS011;42618;51.226;4.910;2023-03-17T09:12:26;5.35;;;3.38;;
56736;SDS011;42618;51.226;4.910;2023-03-17T09:14:52;3.17;;;1.90;;
56736;SDS011;42618;51.226;4.910;2023-03-17T09:17:20;8.70;;;2.97;;
56736;SDS011;42618;51.226;4.910;2023-03-17T09:19:47;4.53;;;1.37;;
56736;SDS011;42618;51.226;4.910;2023-03-17T09:22:14;4.75;;;1.33;;
56736;SDS011;42618;51.226;4.910;2023-03-17T09:24:41;2.40;;;1.20;;
56736;SDS011;42618;51.226;4.910;2023-03-17T09:27:07;4.22;;;1.73;;
56736;SDS011;42618;51.226;4.910;2023-03-17T09:29:34;4.25;;;1.58;;
56736;SDS011;42618;51.226;4.910;2023-03-17T09:32:01;7.93;;;2.00;;
56736;SDS011;42618;51.226;4.910;2023-03-17T09:34:27;8.68;;;1.73;;
56736;SDS011;42618;51.226;4.910;2023-03-17T09:36:55;7.65;;;1.40;;
56736;SDS011;42618;51.226;4.910;2023-03-17T09:39:22;2.80;;;1.83;;
56736;SDS011;42618;51.226;4.910;2023-03-17T09:44:35;3.53;;;1.40;;
56736;SDS011;42618;51.226;4.910;2023-03-17T09:52:01;4.50;;;1.35;;
56736;SDS011;42618;51.226;4.910;2023-03-17T09:54:30;3.85;;;1.30;;
56736;SDS011;42618;51.226;4.910;2023-03-17T09:56:59;3.97;;;1.02;;
56736;SDS011;42618;51.226;4.910;2023-03-17T09:59:33;4.28;;;1.58;;
56736;SDS011;42618;51.226;4.910;2023-03-17T10:02:00;5.00;;;1.40;;
56736;SDS011;42618;51.226;4.910;2023-03-17T10:04:27;3.97;;;1.25;;
56736;SDS011;42618;51.226;4.910;2023-03-17T10:06:59;3.08;;;1.20;;
56736;SDS011;42618;51.226;4.910;2023-03-17T10:17:24;5.60;;;1.35;;
56736;SDS011;42618;51.226;4.910;2023-03-17T10:19:56;3.22;;;1.13;;
56736;SDS011;42618;51.226;4.910;2023-03-17T10:24:53;3.22;;;1.67;;
56736;SDS011;42618;51.226;4.910;2023-03-17T10:27:22;4.10;;;2.00;;
56736;SDS011;42618;51.226;4.910;2023-03-17T10:29:49;5.00;;;1.30;;
56736;SDS011;42618;51.226;4.910;2023-03-17T10:32:16;5.35;;;1.27;;
56736;SDS011;42618;51.226;4.910;2023-03-17T10:34:42;2.85;;;1.30;;
56736;SDS011;42618;51.226;4.910;2023-03-17T10:39:52;4.07;;;1.42;;
56736;SDS011;42618;51.226;4.910;2023-03-17T10:42:27;4.10;;;1.30;;
56736;SDS011;42618;51.226;4.910;2023-03-17T10:49:48;4.75;;;1.80;;
56736;SDS011;42618;51.226;4.910;2023-03-17T10:52:19;2.88;;;1.42;;
56736;SDS011;42618;51.226;4.910;2023-03-17T10:54:47;4.97;;;1.50;;
56736;SDS011;42618;51.226;4.910;2023-03-17T10:57:14;5.50;;;1.60;;
56736;SDS011;42618;51.226;4.910;2023-03-17T10:59:41;2.30;;;1.30;;
56736;SDS011;42618;51.226;4.910;2023-03-17T11:02:17;4.40;;;1.45;;
56736;SDS011;42618;51.226;4.910;2023-03-17T11:04:44;5.45;;;1.33;;
56736;SDS011;42618;51.226;4.910;2023-03-17T11:07:14;4.50;;;1.45;;
56736;SDS011;42618;51.226;4.910;2023-03-17T11:09:42;5.95;;;1.60;;
56736;SDS011;42618;51.226;4.910;2023-03-17T11:14:48;7.65;;;2.92;;
56736;SDS011;42618;51.226;4.910;2023-03-17T11:17:16;3.67;;;1.73;;
56736;SDS011;42618;51.226;4.910;2023-03-17T11:25:15;2.20;;;1.50;;
56736;SDS011;42618;51.226;4.910;2023-03-17T11:30:33;3.92;;;1.50;;
56736;SDS011;42618;51.226;4.910;2023-03-17T11:33:04;4.82;;;1.63;;
56736;SDS011;42618;51.226;4.910;2023-03-17T11:35:43;2.88;;;1.52;;
56736;SDS011;42618;51.226;4.910;2023-03-17T11:38:27;3.60;;;1.40;;
56736;SDS011;42618;51.226;4.910;2023-03-17T11:41:16;7.22;;;1.70;;
56736;SDS011;42618;51.226;4.910;2023-03-17T11:43:53;6.55;;;1.40;;
56736;SDS011;42618;51.226;4.910;2023-03-17T11:46:28;5.00;;;1.83;;
56736;SDS011;42618;51.226;4.910;2023-03-17T11:49:02;4.90;;;1.33;;
56736;SDS011;42618;51.226;4.910;2023-03-17T11:54:07;2.90;;;1.33;;
56736;SDS011;42618;51.226;4.910;2023-03-17T11:56:45;7.68;;;1.33;;
56736;SDS011;42618;51.226;4.910;2023-03-17T11:59:16;5.05;;;1.33;;
56736;SDS011;42618;51.226;4.910;2023-03-17T12:01:46;3.20;;;1.15;;
56736;SDS011;42618;51.226;4.910;2023-03-17T12:04:19;3.75;;;1.30;;
56736;SDS011;42618;51.226;4.910;2023-03-17T12:06:48;2.80;;;1.35;;
56736;SDS011;42618;51.226;4.910;2023-03-17T12:09:34;4.03;;;1.60;;
56736;SDS011;42618;51.226;4.910;2023-03-17T12:12:02;5.13;;;1.30;;
56736;SDS011;42618;51.226;4.910;2023-03-17T12:14:40;3.60;;;1.40;;
56736;SDS011;42618;51.226;4.910;2023-03-17T12:17:17;4.25;;;1.40;;
56736;SDS011;42618;51.226;4.910;2023-03-17T12:22:23;4.45;;;1.65;;
56736;SDS011;42618;51.226;4.910;2023-03-17T12:27:41;7.57;;;1.95;;
56736;SDS011;42618;51.226;4.910;2023-03-17T12:30:14;4.05;;;1.45;;
56736;SDS011;42618;51.226;4.910;2023-03-17T12:37:48;3.67;;;1.20;;
56736;SDS011;42618;51.226;4.910;2023-03-17T12:40:16;3.75;;;1.42;;
56736;SDS011;42618;51.226;4.910;2023-03-17T12:48:18;6.40;;;1.40;;
56736;SDS011;42618;51.226;4.910;2023-03-17T12:53:12;4.90;;;1.48;;
56736;SDS011;42618;51.226;4.910;2023-03-17T12:55:43;5.22;;;1.48;;
56736;SDS011;42618;51.226;4.910;2023-03-17T12:58:20;2.25;;;1.45;;
56736;SDS011;42618;51.226;4.910;2023-03-17T13:03:44;7.38;;;3.28;;
56736;SDS011;42618;51.226;4.910;2023-03-17T13:06:14;3.47;;;1.20;;
56736;SDS011;42618;51.226;4.910;2023-03-17T13:08:42;5.18;;;1.63;;
56736;SDS011;42618;51.226;4.910;2023-03-17T13:11:13;3.75;;;1.35;;
56736;SDS011;42618;51.226;4.910;2023-03-17T13:13:43;2.85;;;1.35;;
56736;SDS011;42618;51.226;4.910;2023-03-17T13:16:53;4.97;;;1.05;;
56736;SDS011;42618;51.226;4.910;2023-03-17T13:21:34;5.45;;;1.05;;
56736;SDS011;42618;51.226;4.910;2023-03-17T13:26:59;4.07;;;1.30;;
56736;SDS011;42618;51.226;4.910;2023-03-17T13:34:49;3.00;;;1.25;;
56736;SDS011;42618;51.226;4.910;2023-03-17T13:37:21;5.20;;;1.38;;
56736;SDS011;42618;51.226;4.910;2023-03-17T13:40:02;3.45;;;1.15;;
56736;SDS011;42618;51.226;4.910;2023-03-17T13:45:12;5.82;;;1.50;;
56736;SDS011;42618;51.226;4.910;2023-03-17T13:47:41;4.47;;;1.20;;
56736;SDS011;42618;51.226;4.910;2023-03-17T13:50:21;9.75;;;1.60;;
56736;SDS011;42618;51.226;4.910;2023-03-17T13:52:52;5.68;;;1.40;;
56736;SDS011;42618;51.226;4.910;2023-03-17T14:00:38;5.55;;;1.13;;
56736;SDS011;42618;51.226;4.910;2023-03-17T14:03:16;11.55;;;5.28;;
56736;SDS011;42618;51.226;4.910;2023-03-17T14:05:48;10.07;;;2.13;;
56736;SDS011;42618;51.226;4.910;2023-03-17T14:10:42;1.90;;;1.15;;
56736;SDS011;42618;51.226;4.910;2023-03-17T14:15:37;5.97;;;1.45;;
56736;SDS011;42618;51.226;4.910;2023-03-17T14:18:14;37.85;;;3.85;;
56736;SDS011;42618;51.226;4.910;2023-03-17T14:20:54;7.88;;;1.23;;
56736;SDS011;42618;51.226;4.910;2023-03-17T14:23:21;2.58;;;1.20;;
56736;SDS011;42618;51.226;4.910;2023-03-17T14:25:49;5.55;;;1.33;;
56736;SDS011;42618;51.226;4.910;2023-03-17T14:28:18;7.63;;;1.15;;
56736;SDS011;42618;51.226;4.910;2023-03-17T14:30:51;4.07;;;1.00;;
56736;SDS011;42618;51.226;4.910;2023-03-17T14:35:48;3.10;;;1.35;;
56736;SDS011;42618;51.226;4.910;2023-03-17T14:38:18;6.68;;;1.17;;
56736;SDS011;42618;51.226;4.910;2023-03-17T14:40:46;5.78;;;1.20;;
56736;SDS011;42618;51.226;4.910;2023-03-17T14:43:13;5.72;;;1.00;;
56736;SDS011;42618;51.226;4.910;2023-03-17T14:45:41;3.60;;;1.10;;
56736;SDS011;42618;51.226;4.910;2023-03-17T14:48:12;3.63;;;1.40;;
56736;SDS011;42618;51.226;4.910;2023-03-17T14:50:46;5.63;;;1.02;;
56736;SDS011;42618;51.226;4.910;2023-03-17T14:53:14;3.50;;;0.90;;
56736;SDS011;42618;51.226;4.910;2023-03-17T14:55:41;2.10;;;0.93;;
56736;SDS011;42618;51.226;4.910;2023-03-17T14:58:15;4.25;;;1.00;;
56736;SDS011;42618;51.226;4.910;2023-03-17T15:00:43;3.15;;;0.88;;
56736;SDS011;42618;51.226;4.910;2023-03-17T15:05:39;5.03;;;1.27;;
56736;SDS011;42618;51.226;4.910;2023-03-17T15:10:38;5.20;;;0.95;;
56736;SDS011;42618;51.226;4.910;2023-03-17T15:13:06;5.25;;;1.00;;
56736;SDS011;42618;51.226;4.910;2023-03-17T15:15:36;4.32;;;1.00;;
56736;SDS011;42618;51.226;4.910;2023-03-17T15:18:05;6.10;;;1.05;;
56736;SDS011;42618;51.226;4.910;2023-03-17T15:20:32;2.58;;;1.20;;
56736;SDS011;42618;51.226;4.910;2023-03-17T15:23:04;3.78;;;1.00;;
56736;SDS011;42618;51.226;4.910;2023-03-17T15:27:58;4.90;;;1.13;;
56736;SDS011;42618;51.226;4.910;2023-03-17T15:30:25;5.18;;;1.10;;
56736;SDS011;42618;51.226;4.910;2023-03-17T15:32:58;3.80;;;1.00;;
56736;SDS011;42618;51.226;4.910;2023-03-17T15:35:25;4.43;;;1.10;;
56736;SDS011;42618;51.226;4.910;2023-03-17T15:37:53;5.63;;;1.20;;
56736;SDS011;42618;51.226;4.910;2023-03-17T15:40:19;3.20;;;1.00;;
56736;SDS011;42618;51.226;4.910;2023-03-17T15:42:46;3.55;;;0.70;;
56736;SDS011;42618;51.226;4.910;2023-03-17T15:45:13;2.67;;;1.05;;
56736;SDS011;42618;51.226;4.910;2023-03-17T15:47:40;3.88;;;1.45;;
56736;SDS011;42618;51.226;4.910;2023-03-17T15:50:19;3.08;;;0.95;;
56736;SDS011;42618;51.226;4.910;2023-03-17T15:52:49;4.60;;;1.20;;
56736;SDS011;42618;51.226;4.910;2023-03-17T15:55:20;3.25;;;0.90;;
56736;SDS011;42618;51.226;4.910;2023-03-17T16:00:20;5.28;;;1.63;;
56736;SDS011;42618;51.226;4.910;2023-03-17T16:02:49;2.53;;;1.00;;
56736;SDS011;42618;51.226;4.910;2023-03-17T16:05:19;2.80;;;0.88;;
56736;SDS011;42618;51.226;4.910;2023-03-17T16:07:47;2.58;;;0.68;;
56736;SDS011;42618;51.226;4.910;2023-03-17T16:10:24;5.47;;;0.55;;
56736;SDS011;42618;51.226;4.910;2023-03-17T16:12:51;4.68;;;0.70;;
56736;SDS011;42618;51.226;4.910;2023-03-17T16:15:22;4.00;;;0.60;;
56736;SDS011;42618;51.226;4.910;2023-03-17T16:17:53;4.18;;;0.70;;
56736;SDS011;42618;51.226;4.910;2023-03-17T16:20:21;6.28;;;0.90;;
56736;SDS011;42618;51.226;4.910;2023-03-17T16:22:48;2.55;;;0.60;;
56736;SDS011;42618;51.226;4.910;2023-03-17T16:25:26;1.70;;;0.68;;
56736;SDS011;42618;51.226;4.910;2023-03-17T16:27:54;5.95;;;1.13;;
56736;SDS011;42618;51.226;4.910;2023-03-17T16:30:23;3.58;;;1.20;;
56736;SDS011;42618;51.226;4.910;2023-03-17T16:32:50;3.08;;;0.88;;
56736;SDS011;42618;51.226;4.910;2023-03-17T16:35:18;4.20;;;0.82;;
56736;SDS011;42618;51.226;4.910;2023-03-17T16:37:45;4.03;;;1.35;;